sensor_id;sensor_type;location;lat;lon;timestamp;pressure;altitude;pressure_sealevel;temperature;humidity
75051;BME280;63628;47.656;11.310;2023-09-07T00:01:34;95159.50;;;20.61;61.57
75051;BME280;63628;47.656;11.310;2023-09-07T00:04:01;95154.81;;;20.47;61.94
75051;BME280;63628;47.656;11.310;2023-09-07T00:06:30;95155.88;;;20.46;62.10
75051;BME280;63628;47.656;11.310;2023-09-07T00:08:57;95146.44;;;20.49;62.08
75051;BME280;63628;47.656;11.310;2023-09-07T00:11:25;95143.63;;;20.59;61.59
75051;BME280;63628;47.656;11.310;2023-09-07T00:13:51;95149.06;;;20.54;61.61
75051;BME280;63628;47.656;11.310;2023-09-07T00:16:18;95142.44;;;20.46;61.66
75051;BME280;63628;47.656;11.310;2023-09-07T00:18:45;95145.19;;;20.41;62.01
75051;BME280;63628;47.656;11.310;2023-09-07T00:21:11;95140.34;;;20.38;61.82
75051;BME280;63628;47.656;11.310;2023-09-07T00:23:39;95131.13;;;20.49;61.54
75051;BME280;63628;47.656;11.310;2023-09-07T00:26:06;95138.50;;;20.34;61.75
75051;BME280;63628;47.656;11.310;2023-09-07T00:28:34;95133.56;;;20.46;61.54
75051;BME280;63628;47.656;11.310;2023-09-07T00:31:01;95137.91;;;20.42;61.48
75051;BME280;63628;47.656;11.310;2023-09-07T00:33:28;95150.25;;;18.96;56.69
75051;BME280;63628;47.656;11.310;2023-09-07T00:35:54;95152.63;;;16.74;71.05
75051;BME280;63628;47.656;11.310;2023-09-07T00:38:21;95148.31;;;19.56;63.92
75051;BME280;63628;47.656;11.310;2023-09-07T00:40:48;95155.66;;;20.09;62.42
75051;BME280;63628;47.656;11.310;2023-09-07T00:43:14;95162.41;;;18.63;66.17
75051;BME280;63628;47.656;11.310;2023-09-07T00:45:42;95161.47;;;19.92;62.58
75051;BME280;63628;47.656;11.310;2023-09-07T00:48:11;95159.91;;;20.15;61.88
75051;BME280;63628;47.656;11.310;2023-09-07T00:50:38;95162.13;;;20.08;61.71
75051;BME280;63628;47.656;11.310;2023-09-07T00:53:05;95157.84;;;20.07;61.74
75051;BME280;63628;47.656;11.310;2023-09-07T00:55:33;95156.41;;;20.14;61.83
75051;BME280;63628;47.656;11.310;2023-09-07T00:58:02;95161.84;;;20.09;62.00
75051;BME280;63628;47.656;11.310;2023-09-07T01:00:30;95157.50;;;20.18;60.76
75051;BME280;63628;47.656;11.310;2023-09-07T01:02:58;95165.28;;;20.20;61.45
75051;BME280;63628;47.656;11.310;2023-09-07T01:05:32;95158.06;;;20.10;61.64
75051;BME280;63628;47.656;11.310;2023-09-07T01:08:04;95153.25;;;20.07;61.83
75051;BME280;63628;47.656;11.310;2023-09-07T01:10:34;95154.88;;;20.08;61.47
75051;BME280;63628;47.656;11.310;2023-09-07T01:13:01;95155.44;;;20.05;61.68
75051;BME280;63628;47.656;11.310;2023-09-07T01:15:28;95149.81;;;20.02;61.93
75051;BME280;63628;47.656;11.310;2023-09-07T01:17:55;95150.91;;;20.01;61.71
75051;BME280;63628;47.656;11.310;2023-09-07T01:20:39;95141.81;;;19.97;61.72
75051;BME280;63628;47.656;11.310;2023-09-07T01:23:08;95134.81;;;19.95;61.65
75051;BME280;63628;47.656;11.310;2023-09-07T01:25:36;95137.13;;;20.07;61.42
75051;BME280;63628;47.656;11.310;2023-09-07T01:28:03;95138.00;;;20.03;61.38
75051;BME280;63628;47.656;11.310;2023-09-07T01:30:30;95137.22;;;19.97;61.73
75051;BME280;63628;47.656;11.310;2023-09-07T01:32:57;95130.75;;;19.69;60.67
75051;BME280;63628;47.656;11.310;2023-09-07T01:35:24;95130.53;;;19.94;59.82
75051;BME280;63628;47.656;11.310;2023-09-07T01:37:52;95143.22;;;18.05;63.02
75051;BME280;63628;47.656;11.310;2023-09-07T01:40:20;95143.75;;;18.28;59.75
75051;BME280;63628;47.656;11.310;2023-09-07T01:42:46;95141.31;;;16.57;62.65
75051;BME280;63628;47.656;11.310;2023-09-07T01:45:13;95147.94;;;18.54;65.53
75051;BME280;63628;47.656;11.310;2023-09-07T01:47:40;95140.78;;;19.48;62.53
75051;BME280;63628;47.656;11.310;2023-09-07T01:50:07;95135.59;;;19.67;61.57
75051;BME280;63628;47.656;11.310;2023-09-07T01:52:34;95137.22;;;19.68;61.63
75051;BME280;63628;47.656;11.310;2023-09-07T01:55:00;95137.78;;;19.65;61.46
75051;BME280;63628;47.656;11.310;2023-09-07T01:57:28;95135.38;;;19.63;62.03
75051;BME280;63628;47.656;11.310;2023-09-07T01:59:56;95138.53;;;19.71;61.60
75051;BME280;63628;47.656;11.310;2023-09-07T02:02:24;95139.09;;;19.68;61.92
75051;BME280;63628;47.656;11.310;2023-09-07T02:04:50;95137.84;;;19.55;61.98
75051;BME280;63628;47.656;11.310;2023-09-07T02:07:17;95134.09;;;19.51;61.91
75051;BME280;63628;47.656;11.310;2023-09-07T02:09:44;95133.28;;;19.55;61.84
75051;BME280;63628;47.656;11.310;2023-09-07T02:12:10;95135.44;;;19.48;61.49
75051;BME280;63628;47.656;11.310;2023-09-07T02:14:39;95136.44;;;19.62;61.49
75051;BME280;63628;47.656;11.310;2023-09-07T02:17:06;95133.81;;;19.57;61.58
75051;BME280;63628;47.656;11.310;2023-09-07T02:19:33;95137.03;;;19.49;61.87
75051;BME280;63628;47.656;11.310;2023-09-07T02:21:59;95130.63;;;19.45;62.23
75051;BME280;63628;47.656;11.310;2023-09-07T02:24:26;95124.47;;;19.40;62.09
75051;BME280;63628;47.656;11.310;2023-09-07T02:26:53;95120.69;;;19.46;61.87
75051;BME280;63628;47.656;11.310;2023-09-07T02:29:19;95132.75;;;19.53;61.59
75051;BME280;63628;47.656;11.310;2023-09-07T02:31:48;95128.44;;;19.57;61.38
75051;BME280;63628;47.656;11.310;2023-09-07T02:34:14;95122.00;;;19.48;61.50
75051;BME280;63628;47.656;11.310;2023-09-07T02:36:41;95121.72;;;19.50;61.58
75051;BME280;63628;47.656;11.310;2023-09-07T02:39:07;95123.47;;;18.86;55.87
75051;BME280;63628;47.656;11.310;2023-09-07T02:41:35;95127.19;;;18.95;63.04
75051;BME280;63628;47.656;11.310;2023-09-07T02:44:01;95117.81;;;19.32;61.96
75051;BME280;63628;47.656;11.310;2023-09-07T02:46:29;95124.47;;;19.40;61.47
75051;BME280;63628;47.656;11.310;2023-09-07T02:48:57;95116.50;;;19.29;61.89
75051;BME280;63628;47.656;11.310;2023-09-07T02:51:24;95122.88;;;19.39;61.60
75051;BME280;63628;47.656;11.310;2023-09-07T02:53:51;95123.97;;;19.38;61.47
75051;BME280;63628;47.656;11.310;2023-09-07T02:56:18;95121.06;;;19.29;61.72
75051;BME280;63628;47.656;11.310;2023-09-07T02:58:45;95117.84;;;19.27;61.88
75051;BME280;63628;47.656;11.310;2023-09-07T03:01:11;95123.69;;;19.39;61.29
75051;BME280;63628;47.656;11.310;2023-09-07T03:03:40;95122.38;;;19.31;61.56
75051;BME280;63628;47.656;11.310;2023-09-07T03:06:09;95118.66;;;19.27;61.21
75051;BME280;63628;47.656;11.310;2023-09-07T03:08:36;95122.72;;;19.25;61.73
75051;BME280;63628;47.656;11.310;2023-09-07T03:11:03;95118.63;;;19.32;61.40
75051;BME280;63628;47.656;11.310;2023-09-07T03:13:30;95118.94;;;19.26;61.51
75051;BME280;63628;47.656;11.310;2023-09-07T03:15:57;95115.75;;;19.19;57.80
75051;BME280;63628;47.656;11.310;2023-09-07T03:18:24;95123.31;;;19.12;61.68
75051;BME280;63628;47.656;11.310;2023-09-07T03:20:54;95126.78;;;19.17;61.58
75051;BME280;63628;47.656;11.310;2023-09-07T03:23:22;95127.81;;;19.21;61.42
75051;BME280;63628;47.656;11.310;2023-09-07T03:25:49;95125.69;;;19.18;61.41
75051;BME280;63628;47.656;11.310;2023-09-07T03:28:16;95123.88;;;19.09;61.77
75051;BME280;63628;47.656;11.310;2023-09-07T03:30:43;95128.78;;;17.91;63.51
75051;BME280;63628;47.656;11.310;2023-09-07T03:33:10;95132.84;;;18.89;62.29
75051;BME280;63628;47.656;11.310;2023-09-07T03:35:36;95126.03;;;19.07;61.62
75051;BME280;63628;47.656;11.310;2023-09-07T03:38:04;95130.06;;;19.09;61.61
75051;BME280;63628;47.656;11.310;2023-09-07T03:40:32;95128.81;;;18.91;62.10
75051;BME280;63628;47.656;11.310;2023-09-07T03:42:59;95129.59;;;18.97;61.47
75051;BME280;63628;47.656;11.310;2023-09-07T03:45:26;95129.56;;;19.02;61.66
75051;BME280;63628;47.656;11.310;2023-09-07T03:47:52;95128.09;;;18.60;62.57
75051;BME280;63628;47.656;11.310;2023-09-07T03:50:19;95129.03;;;19.00;61.61
75051;BME280;63628;47.656;11.310;2023-09-07T03:52:46;95139.50;;;18.96;61.66
75051;BME280;63628;47.656;11.310;2023-09-07T03:55:12;95136.28;;;18.99;61.49
75051;BME280;63628;47.656;11.310;2023-09-07T03:57:40;95136.31;;;18.94;57.99
75051;BME280;63628;47.656;11.310;2023-09-07T04:00:09;95128.03;;;18.81;61.84
75051;BME280;63628;47.656;11.310;2023-09-07T04:02:36;95130.09;;;18.99;61.29
75051;BME280;63628;47.656;11.310;2023-09-07T04:05:04;95136.53;;;19.03;61.20
75051;BME280;63628;47.656;11.310;2023-09-07T04:07:33;95137.66;;;18.92;61.36
75051;BME280;63628;47.656;11.310;2023-09-07T04:10:00;95137.09;;;18.95;61.29
75051;BME280;63628;47.656;11.310;2023-09-07T04:12:27;95148.50;;;16.04;64.41
75051;BME280;63628;47.656;11.310;2023-09-07T04:14:55;95145.09;;;18.00;64.33
75051;BME280;63628;47.656;11.310;2023-09-07T04:17:21;95148.88;;;17.84;58.56
75051;BME280;63628;47.656;11.310;2023-09-07T04:19:48;95145.59;;;18.32;63.13
75051;BME280;63628;47.656;11.310;2023-09-07T04:22:15;95148.19;;;18.68;62.06
75051;BME280;63628;47.656;11.310;2023-09-07T04:24:41;95151.41;;;18.70;61.91
75051;BME280;63628;47.656;11.310;2023-09-07T04:27:09;95152.47;;;18.74;61.76
75051;BME280;63628;47.656;11.310;2023-09-07T04:29:36;95153.25;;;18.75;61.73
75051;BME280;63628;47.656;11.310;2023-09-07T04:32:04;95144.13;;;18.76;61.56
75051;BME280;63628;47.656;11.310;2023-09-07T04:34:31;95158.13;;;18.67;61.77
75051;BME280;63628;47.656;11.310;2023-09-07T04:36:58;95160.25;;;18.71;61.64
75051;BME280;63628;47.656;11.310;2023-09-07T04:39:25;95160.81;;;18.62;62.02
75051;BME280;63628;47.656;11.310;2023-09-07T04:41:51;95160.81;;;18.62;61.97
75051;BME280;63628;47.656;11.310;2023-09-07T04:44:19;95157.31;;;18.67;61.66
75051;BME280;63628;47.656;11.310;2023-09-07T04:46:45;95162.41;;;18.63;61.83
75051;BME280;63628;47.656;11.310;2023-09-07T04:49:13;95163.47;;;18.67;61.73
75051;BME280;63628;47.656;11.310;2023-09-07T04:51:40;95165.63;;;18.65;61.69
75051;BME280;63628;47.656;11.310;2023-09-07T04:54:07;95167.78;;;18.68;61.59
75051;BME280;63628;47.656;11.310;2023-09-07T04:56:33;95173.69;;;18.65;61.45
75051;BME280;63628;47.656;11.310;2023-09-07T04:59:00;95169.38;;;18.59;62.10
75051;BME280;63628;47.656;11.310;2023-09-07T05:01:27;95171.53;;;18.52;61.90
75051;BME280;63628;47.656;11.310;2023-09-07T05:03:54;95170.44;;;18.58;61.89
75051;BME280;63628;47.656;11.310;2023-09-07T05:06:23;95166.16;;;18.57;61.87
75051;BME280;63628;47.656;11.310;2023-09-07T05:08:50;95166.69;;;18.59;61.68
75051;BME280;63628;47.656;11.310;2023-09-07T05:11:16;95167.88;;;17.92;63.40
75051;BME280;63628;47.656;11.310;2023-09-07T05:13:43;95165.94;;;18.38;62.44
75051;BME280;63628;47.656;11.310;2023-09-07T05:16:10;95166.19;;;18.47;61.92
75051;BME280;63628;47.656;11.310;2023-09-07T05:18:36;95165.38;;;18.52;61.76
75051;BME280;63628;47.656;11.310;2023-09-07T05:21:11;95164.38;;;18.22;62.57
75051;BME280;63628;47.656;11.310;2023-09-07T05:23:40;95173.44;;;18.42;61.81
75051;BME280;63628;47.656;11.310;2023-09-07T05:26:06;95173.44;;;18.47;61.71
75051;BME280;63628;47.656;11.310;2023-09-07T05:28:33;95172.63;;;18.46;61.90
75051;BME280;63628;47.656;11.310;2023-09-07T05:31:00;95183.34;;;17.50;62.22
75051;BME280;63628;47.656;11.310;2023-09-07T05:33:27;95190.88;;;16.80;67.48
75051;BME280;63628;47.656;11.310;2023-09-07T05:35:54;95189.56;;;18.01;63.23
75051;BME280;63628;47.656;11.310;2023-09-07T05:38:20;95192.78;;;18.23;62.46
75051;BME280;63628;47.656;11.310;2023-09-07T05:40:48;95194.91;;;18.26;62.40
75051;BME280;63628;47.656;11.310;2023-09-07T05:43:20;95193.59;;;18.24;62.57
75051;BME280;63628;47.656;11.310;2023-09-07T05:45:47;95188.22;;;18.34;62.13
75051;BME280;63628;47.656;11.310;2023-09-07T05:48:14;95195.19;;;18.25;62.35
75051;BME280;63628;47.656;11.310;2023-09-07T05:50:44;95195.19;;;18.30;62.23
75051;BME280;63628;47.656;11.310;2023-09-07T05:53:11;95188.22;;;18.24;62.19
75051;BME280;63628;47.656;11.310;2023-09-07T05:55:38;95187.16;;;18.30;62.13
75051;BME280;63628;47.656;11.310;2023-09-07T05:58:08;95184.72;;;18.33;61.98
75051;BME280;63628;47.656;11.310;2023-09-07T06:00:35;95182.84;;;18.29;62.10
75051;BME280;63628;47.656;11.310;2023-09-07T06:03:03;95184.22;;;18.26;62.28
75051;BME280;63628;47.656;11.310;2023-09-07T06:05:30;95173.75;;;18.25;62.25
75051;BME280;63628;47.656;11.310;2023-09-07T06:07:57;95168.13;;;18.21;62.23
75051;BME280;63628;47.656;11.310;2023-09-07T06:10:24;95176.69;;;18.18;62.46
75051;BME280;63628;47.656;11.310;2023-09-07T06:12:50;95176.91;;;17.40;67.00
75051;BME280;63628;47.656;11.310;2023-09-07T06:15:18;95166.81;;;17.93;63.52
75051;BME280;63628;47.656;11.310;2023-09-07T06:17:45;95185.72;;;15.84;74.08
75051;BME280;63628;47.656;11.310;2023-09-07T06:20:12;95193.22;;;15.06;78.08
75051;BME280;63628;47.656;11.310;2023-09-07T06:22:39;95189.44;;;15.02;79.15
75051;BME280;63628;47.656;11.310;2023-09-07T06:25:06;95182.59;;;15.38;77.15
75051;BME280;63628;47.656;11.310;2023-09-07T06:27:33;95192.47;;;16.29;74.03
75051;BME280;63628;47.656;11.310;2023-09-07T06:30:00;95186.16;;;16.97;68.35
75051;BME280;63628;47.656;11.310;2023-09-07T06:32:28;95186.25;;;17.38;69.11
75051;BME280;63628;47.656;11.310;2023-09-07T06:34:55;95185.97;;;17.29;69.21
75051;BME280;63628;47.656;11.310;2023-09-07T06:37:22;95184.03;;;16.99;70.08
75051;BME280;63628;47.656;11.310;2023-09-07T06:39:51;95185.56;;;17.68;65.09
75051;BME280;63628;47.656;11.310;2023-09-07T06:42:17;95183.41;;;17.90;64.12
75051;BME280;63628;47.656;11.310;2023-09-07T06:44:44;95185.28;;;18.05;67.08
75051;BME280;63628;47.656;11.310;2023-09-07T06:47:11;95186.81;;;17.55;71.03
75051;BME280;63628;47.656;11.310;2023-09-07T06:49:40;95190.88;;;16.80;72.76
75051;BME280;63628;47.656;11.310;2023-09-07T06:52:06;95194.59;;;16.27;73.18
75051;BME280;63628;47.656;11.310;2023-09-07T06:54:34;95189.03;;;16.86;73.32
75051;BME280;63628;47.656;11.310;2023-09-07T06:57:00;95189.69;;;16.56;74.70
75051;BME280;63628;47.656;11.310;2023-09-07T06:59:27;95188.94;;;15.86;78.16
75051;BME280;63628;47.656;11.310;2023-09-07T07:01:54;95192.25;;;16.88;69.32
75051;BME280;63628;47.656;11.310;2023-09-07T07:04:20;95183.91;;;17.62;65.95
75051;BME280;63628;47.656;11.310;2023-09-07T07:06:48;95186.63;;;17.77;65.06
75051;BME280;63628;47.656;11.310;2023-09-07T07:09:15;95186.63;;;17.82;64.63
75051;BME280;63628;47.656;11.310;2023-09-07T07:11:42;95193.41;;;17.02;71.18
75051;BME280;63628;47.656;11.310;2023-09-07T07:14:09;95184.03;;;16.99;71.01
75051;BME280;63628;47.656;11.310;2023-09-07T07:16:37;95195.16;;;16.76;74.26
75051;BME280;63628;47.656;11.310;2023-09-07T07:19:04;95202.72;;;16.47;76.97
75051;BME280;63628;47.656;11.310;2023-09-07T07:21:50;95198.63;;;16.29;77.61
75051;BME280;63628;47.656;11.310;2023-09-07T07:24:17;95201.84;;;16.78;75.90
75051;BME280;63628;47.656;11.310;2023-09-07T07:26:44;95194.28;;;17.33;75.45
75051;BME280;63628;47.656;11.310;2023-09-07T07:29:11;95201.34;;;17.90;73.99
75051;BME280;63628;47.656;11.310;2023-09-07T07:31:47;95201.09;;;17.71;71.08
75051;BME280;63628;47.656;11.310;2023-09-07T07:34:14;95199.25;;;16.94;76.54
75051;BME280;63628;47.656;11.310;2023-09-07T07:36:41;95205.81;;;17.49;74.89
75051;BME280;63628;47.656;11.310;2023-09-07T07:39:09;95206.66;;;17.64;76.78
75051;BME280;63628;47.656;11.310;2023-09-07T07:41:36;95196.19;;;18.64;75.37
75051;BME280;63628;47.656;11.310;2023-09-07T07:44:04;95195.91;;;18.76;74.00
75051;BME280;63628;47.656;11.310;2023-09-07T07:46:31;95199.72;;;19.24;74.30
75051;BME280;63628;47.656;11.310;2023-09-07T07:48:58;95198.81;;;18.95;70.14
75051;BME280;63628;47.656;11.310;2023-09-07T07:51:25;95193.78;;;19.82;71.24
75051;BME280;63628;47.656;11.310;2023-09-07T07:53:54;95195.84;;;20.58;67.87
75051;BME280;63628;47.656;11.310;2023-09-07T07:56:23;95193.06;;;19.17;68.12
75051;BME280;63628;47.656;11.310;2023-09-07T07:58:50;95199.28;;;20.01;69.04
75051;BME280;63628;47.656;11.310;2023-09-07T08:01:18;95201.06;;;20.10;71.08
75051;BME280;63628;47.656;11.310;2023-09-07T08:03:46;95188.22;;;20.36;67.19
75051;BME280;63628;47.656;11.310;2023-09-07T08:06:13;95189.28;;;20.40;68.83
75051;BME280;63628;47.656;11.310;2023-09-07T08:08:40;95189.06;;;20.32;66.21
75051;BME280;63628;47.656;11.310;2023-09-07T08:11:07;95191.41;;;20.96;67.02
75051;BME280;63628;47.656;11.310;2023-09-07T08:13:36;95197.34;;;21.60;67.08
75051;BME280;63628;47.656;11.310;2023-09-07T08:16:04;95189.19;;;22.49;64.70
75051;BME280;63628;47.656;11.310;2023-09-07T08:18:32;95192.66;;;20.22;68.61
75051;BME280;63628;47.656;11.310;2023-09-07T08:21:01;95182.63;;;21.71;65.01
75051;BME280;63628;47.656;11.310;2023-09-07T08:23:28;95190.66;;;19.70;69.72
75051;BME280;63628;47.656;11.310;2023-09-07T08:25:55;95196.44;;;19.38;69.07
75051;BME280;63628;47.656;11.310;2023-09-07T08:28:22;95187.16;;;22.27;64.89
75051;BME280;63628;47.656;11.310;2023-09-07T08:30:51;95178.00;;;22.41;65.02
75051;BME280;63628;47.656;11.310;2023-09-07T08:33:20;95179.63;;;21.72;66.44
75051;BME280;63628;47.656;11.310;2023-09-07T08:35:53;95180.66;;;21.76;64.73
75051;BME280;63628;47.656;11.310;2023-09-07T08:38:22;95174.34;;;23.33;62.14
75051;BME280;63628;47.656;11.310;2023-09-07T08:40:51;95180.41;;;20.93;68.83
75051;BME280;63628;47.656;11.310;2023-09-07T08:43:19;95190.41;;;21.11;65.14
75051;BME280;63628;47.656;11.310;2023-09-07T08:45:58;95182.16;;;23.21;65.17
75051;BME280;63628;47.656;11.310;2023-09-07T08:48:30;95174.88;;;22.94;61.71
75051;BME280;63628;47.656;11.310;2023-09-07T08:50:59;95182.09;;;22.53;60.19
75051;BME280;63628;47.656;11.310;2023-09-07T08:53:26;95181.75;;;21.75;66.10
75051;BME280;63628;47.656;11.310;2023-09-07T08:55:53;95181.16;;;22.30;64.04
75051;BME280;63628;47.656;11.310;2023-09-07T08:58:20;95183.19;;;21.87;65.80
75051;BME280;63628;47.656;11.310;2023-09-07T09:00:47;95180.00;;;21.66;64.69
75051;BME280;63628;47.656;11.310;2023-09-07T09:03:15;95171.03;;;21.70;65.28
75051;BME280;63628;47.656;11.310;2023-09-07T09:05:43;95183.25;;;21.01;65.15
75051;BME280;63628;47.656;11.310;2023-09-07T09:08:10;95186.34;;;20.66;67.61
75051;BME280;63628;47.656;11.310;2023-09-07T09:10:38;95181.06;;;21.27;64.16
75051;BME280;63628;47.656;11.310;2023-09-07T09:13:05;95173.63;;;23.28;63.09
75051;BME280;63628;47.656;11.310;2023-09-07T09:15:32;95166.09;;;22.29;63.86
75051;BME280;63628;47.656;11.310;2023-09-07T09:18:09;95160.75;;;25.04;56.17
75051;BME280;63628;47.656;11.310;2023-09-07T09:20:38;95164.03;;;25.40;55.67
75051;BME280;63628;47.656;11.310;2023-09-07T09:23:05;95160.78;;;25.21;54.56
75051;BME280;63628;47.656;11.310;2023-09-07T09:25:33;95171.44;;;24.02;56.59
75051;BME280;63628;47.656;11.310;2023-09-07T09:28:00;95166.78;;;24.39;58.67
75051;BME280;63628;47.656;11.310;2023-09-07T09:30:27;95162.66;;;24.41;54.37
75051;BME280;63628;47.656;11.310;2023-09-07T09:32:53;95156.47;;;22.23;61.97
75051;BME280;63628;47.656;11.310;2023-09-07T09:35:21;95157.91;;;24.78;58.95
75051;BME280;63628;47.656;11.310;2023-09-07T09:37:51;95157.50;;;22.27;60.85
75051;BME280;63628;47.656;11.310;2023-09-07T09:40:18;95158.81;;;22.10;63.04
75051;BME280;63628;47.656;11.310;2023-09-07T09:42:45;95156.56;;;22.18;64.18
75051;BME280;63628;47.656;11.310;2023-09-07T09:45:12;95153.84;;;23.19;61.95
75051;BME280;63628;47.656;11.310;2023-09-07T09:47:40;95159.91;;;23.88;57.83
75051;BME280;63628;47.656;11.310;2023-09-07T09:50:08;95154.28;;;24.51;56.12
75051;BME280;63628;47.656;11.310;2023-09-07T09:52:36;95150.72;;;25.04;58.15
75051;BME280;63628;47.656;11.310;2023-09-07T09:55:07;95148.78;;;24.34;55.87
75051;BME280;63628;47.656;11.310;2023-09-07T09:57:35;95143.94;;;26.36;56.33
75051;BME280;63628;47.656;11.310;2023-09-07T10:00:04;95158.19;;;24.14;57.83
75051;BME280;63628;47.656;11.310;2023-09-07T10:02:58;95148.78;;;27.87;51.67
75051;BME280;63628;47.656;11.310;2023-09-07T10:05:26;95147.94;;;25.61;52.42
75051;BME280;63628;47.656;11.310;2023-09-07T10:08:00;95141.06;;;24.89;52.70
75051;BME280;63628;47.656;11.310;2023-09-07T10:10:33;95142.03;;;25.59;55.35
75051;BME280;63628;47.656;11.310;2023-09-07T10:13:01;95145.69;;;25.37;54.63
75051;BME280;63628;47.656;11.310;2023-09-07T10:15:29;95141.53;;;24.21;58.62
75051;BME280;63628;47.656;11.310;2023-09-07T10:18:06;95136.72;;;25.28;54.44
75051;BME280;63628;47.656;11.310;2023-09-07T10:20:49;95138.69;;;25.88;55.04
75051;BME280;63628;47.656;11.310;2023-09-07T10:23:16;95133.50;;;25.09;57.98
75051;BME280;63628;47.656;11.310;2023-09-07T10:25:49;95136.72;;;23.73;59.88
75051;BME280;63628;47.656;11.310;2023-09-07T10:28:20;95133.41;;;26.81;56.67
75051;BME280;63628;47.656;11.310;2023-09-07T10:30:57;95131.28;;;25.19;54.73
75051;BME280;63628;47.656;11.310;2023-09-07T10:33:25;95138.78;;;24.12;57.89
75051;BME280;63628;47.656;11.310;2023-09-07T10:35:52;95137.88;;;23.58;58.95
75051;BME280;63628;47.656;11.310;2023-09-07T10:38:18;95125.63;;;24.50;57.05
75051;BME280;63628;47.656;11.310;2023-09-07T10:40:45;95122.75;;;25.95;54.29
75051;BME280;63628;47.656;11.310;2023-09-07T10:43:13;95116.59;;;26.88;51.80
75051;BME280;63628;47.656;11.310;2023-09-07T10:45:44;95121.25;;;25.11;51.36
75051;BME280;63628;47.656;11.310;2023-09-07T10:48:10;95120.69;;;23.99;57.02
75051;BME280;63628;47.656;11.310;2023-09-07T10:50:45;95122.84;;;23.66;61.06
75051;BME280;63628;47.656;11.310;2023-09-07T10:53:13;95120.25;;;22.56;57.69
75051;BME280;63628;47.656;11.310;2023-09-07T10:55:41;95107.72;;;23.87;58.54
75051;BME280;63628;47.656;11.310;2023-09-07T10:58:10;95106.19;;;24.48;58.48
75051;BME280;63628;47.656;11.310;2023-09-07T11:00:38;95112.66;;;23.85;55.79
75051;BME280;63628;47.656;11.310;2023-09-07T11:03:08;95112.09;;;23.75;64.43
75051;BME280;63628;47.656;11.310;2023-09-07T11:05:38;95107.00;;;23.73;55.88
75051;BME280;63628;47.656;11.310;2023-09-07T11:08:06;95104.13;;;24.23;59.04
75051;BME280;63628;47.656;11.310;2023-09-07T11:10:34;95104.94;;;24.54;58.73
75051;BME280;63628;47.656;11.310;2023-09-07T11:13:03;95106.69;;;23.75;62.45
75051;BME280;63628;47.656;11.310;2023-09-07T11:15:30;95102.13;;;24.28;60.33
75051;BME280;63628;47.656;11.310;2023-09-07T11:18:03;95095.19;;;24.84;58.43
75051;BME280;63628;47.656;11.310;2023-09-07T11:20:31;95090.94;;;25.01;56.77
75051;BME280;63628;47.656;11.310;2023-09-07T11:22:58;95088.50;;;24.90;56.58
75051;BME280;63628;47.656;11.310;2023-09-07T11:25:34;95095.75;;;25.29;57.26
75051;BME280;63628;47.656;11.310;2023-09-07T11:28:02;95084.78;;;25.86;56.93
75051;BME280;63628;47.656;11.310;2023-09-07T11:30:29;95098.13;;;25.14;54.44
75051;BME280;63628;47.656;11.310;2023-09-07T11:33:05;95092.19;;;24.94;54.68
75051;BME280;63628;47.656;11.310;2023-09-07T11:35:32;95091.47;;;25.89;53.34
75051;BME280;63628;47.656;11.310;2023-09-07T11:37:59;95091.31;;;25.42;55.93
75051;BME280;63628;47.656;11.310;2023-09-07T11:40:26;95088.34;;;24.87;55.54
75051;BME280;63628;47.656;11.310;2023-09-07T11:42:53;95088.22;;;25.01;55.09
75051;BME280;63628;47.656;11.310;2023-09-07T11:45:20;95085.72;;;25.30;56.24
75051;BME280;63628;47.656;11.310;2023-09-07T11:47:47;95084.34;;;26.40;51.83
75051;BME280;63628;47.656;11.310;2023-09-07T11:50:16;95077.59;;;25.39;54.44
75051;BME280;63628;47.656;11.310;2023-09-07T11:52:44;95088.88;;;25.15;54.90
75051;BME280;63628;47.656;11.310;2023-09-07T11:55:11;95078.81;;;24.98;55.79
75051;BME280;63628;47.656;11.310;2023-09-07T11:57:37;95084.59;;;25.14;56.38
75051;BME280;63628;47.656;11.310;2023-09-07T12:00:06;95083.94;;;25.17;55.56
75051;BME280;63628;47.656;11.310;2023-09-07T12:02:38;95078.56;;;25.51;56.60
75051;BME280;63628;47.656;11.310;2023-09-07T12:05:06;95081.25;;;25.25;56.93
75051;BME280;63628;47.656;11.310;2023-09-07T12:07:38;95070.75;;;25.67;56.83
75051;BME280;63628;47.656;11.310;2023-09-07T12:10:07;95076.34;;;25.53;56.95
75051;BME280;63628;47.656;11.310;2023-09-07T12:12:36;95068.66;;;25.12;57.79
75051;BME280;63628;47.656;11.310;2023-09-07T12:15:04;95073.56;;;25.02;58.86
75051;BME280;63628;47.656;11.310;2023-09-07T12:17:31;95067.69;;;23.98;57.31
75051;BME280;63628;47.656;11.310;2023-09-07T12:19:58;95070.72;;;24.58;57.48
75051;BME280;63628;47.656;11.310;2023-09-07T12:22:24;95061.78;;;25.15;58.42
75051;BME280;63628;47.656;11.310;2023-09-07T12:24:52;95063.38;;;23.30;59.78
75051;BME280;63628;47.656;11.310;2023-09-07T12:27:38;95065.94;;;24.24;59.48
75051;BME280;63628;47.656;11.310;2023-09-07T12:30:18;95056.38;;;25.23;58.15
75051;BME280;63628;47.656;11.310;2023-09-07T12:32:47;95051.44;;;25.60;56.78
75051;BME280;63628;47.656;11.310;2023-09-07T12:35:14;95057.66;;;23.67;59.02
75051;BME280;63628;47.656;11.310;2023-09-07T12:37:42;95055.09;;;23.26;64.79
75051;BME280;63628;47.656;11.310;2023-09-07T12:40:11;95050.81;;;22.89;61.40
75051;BME280;63628;47.656;11.310;2023-09-07T12:42:40;95051.41;;;22.86;67.98
75051;BME280;63628;47.656;11.310;2023-09-07T12:45:08;95041.66;;;24.33;63.37
75051;BME280;63628;47.656;11.310;2023-09-07T12:47:36;95029.13;;;22.81;62.11
75051;BME280;63628;47.656;11.310;2023-09-07T12:50:04;95031.88;;;23.25;61.36
75051;BME280;63628;47.656;11.310;2023-09-07T12:52:32;95039.00;;;22.58;63.51
75051;BME280;63628;47.656;11.310;2023-09-07T12:55:00;95040.63;;;22.45;64.22